| Date | Time | Temp. (oF) | Dew Point (oF) | Rel. Hum. (%) | Press. (in.) | Wind Dir. | Wind Speed (mph) | Hourly Rainfall (in.) |
|
|---|---|---|---|---|---|---|---|---|---|
| 1 | 03/21 | 00:00 | 41 | 39 | 96 | 29.99 | W | 3 | 0.00 |
| 2 | 03/20 | 23:00 | 41 | 41 | 100 | 29.99 | SW | 1 | 0.00 |
| 3 | 03/20 | 22:00 | 42 | 41 | 100 | 29.99 | W | 1 | 0.00 |
| 4 | 03/20 | 21:00 | 42 | 41 | 100 | 29.99 | SW | 1 | 0.00 |
| 5 | 03/20 | 20:00 | 43 | 42 | 100 | 29.99 | SW | 0 | 0.00 |
| 6 | 03/20 | 19:00 | 43 | 42 | 100 | 29.98 | ENE | 2 | 0.00 |
| 7 | 03/20 | 18:00 | 43 | 42 | 100 | 29.98 | W | 3 | 0.12 |
| 8 | 03/20 | 17:00 | 46 | 45 | 99 | 29.97 | SSW | 12 | 0.00 |
| 9 | miss | miss | miss | miss | miss | miss | miss | miss | |
| 10 | 03/20 | 16:10 | 47 | 46 | 98 | 29.94 | S | 2 | 0.00 |
| 11 | miss | miss | miss | miss | miss | miss | miss | miss | |
| 12 | 03/20 | 16:08 | 47 | 46 | 98 | 29.94 | S | 3 | 0.00 |
| 13 | miss | miss | miss | miss | miss | miss | miss | miss | |
| 14 | 03/20 | 16:06 | 47 | 46 | 98 | 29.94 | SSE | 2 | 0.00 |
| 15 | miss | miss | miss | miss | miss | miss | miss | miss | |
| 16 | 03/20 | 16:04 | 47 | 46 | 98 | 29.94 | SSE | 4 | 0.00 |
| 17 | miss | miss | miss | miss | miss | miss | miss | miss | |
| 18 | 03/20 | 16:02 | 47 | 46 | 99 | 29.94 | ESE | 4 | 0.00 |
| 19 | miss | miss | miss | miss | miss | miss | miss | miss | |
| 20 | 03/20 | 16:00 | 47 | 46 | 99 | 29.94 | ENE | 4 | 0.00 |
| 21 | 03/20 | 15:59 | 47 | 46 | 99 | 29.94 | E | 3 | 0.00 |
| 22 | 03/20 | 15:58 | 47 | 46 | 99 | 29.94 | E | 3 | 0.00 |
| 23 | 03/20 | 15:57 | 47 | 46 | 99 | 29.94 | ESE | 2 | 0.00 |
| 24 | 03/20 | 15:56 | 47 | 46 | 99 | 29.94 | SE | 4 | 0.00 |
| 25 | miss | miss | miss | miss | miss | miss | miss | miss | |
| 26 | 03/20 | 15:55 | 47 | 46 | 99 | 29.94 | SSE | 3 | 0.00 |
| 27 | miss | miss | miss | miss | miss | miss | miss | miss | |
| 28 | 03/20 | 15:55 | 47 | 46 | 99 | 29.94 | SSE | 3 | 0.00 |
| 29 | miss | miss | miss | miss | miss | miss | miss | miss | |
| 30 | 03/20 | 15:55 | 47 | 46 | 99 | 29.94 | SSE | 3 | 0.00 |
| 31 | miss | miss | miss | miss | miss | miss | miss | miss | |
| 32 | 03/20 | 15:55 | 47 | 46 | 99 | 29.94 | SSE | 3 | 0.00 |
| 33 | 03/20 | 15:55 | 47 | 46 | 99 | 29.94 | SSE | 3 | 0.00 |
| 34 | 03/20 | 15:00 | 47 | 46 | 100 | 29.94 | S | 1 | 0.00 |
| 35 | 03/20 | 14:00 | 46 | 45 | 100 | 29.95 | ENE | 2 | 0.00 |
| 36 | 03/20 | 13:00 | 45 | 45 | 100 | 29.98 | SSE | 6 | 0.00 |
| 37 | 03/20 | 12:00 | 44 | 44 | 100 | 29.99 | SSE | 2 | 0.00 |
| 38 | 03/20 | 11:00 | 43 | 42 | 100 | 30.01 | ESE | 1 | 0.00 |
| 39 | 03/20 | 10:00 | 42 | 41 | 100 | 30.03 | S | 5 | 0.00 |
| 40 | 03/20 | 09:00 | 42 | 41 | 100 | 30.02 | SSE | 1 | 0.00 |
| 41 | 03/20 | 08:00 | 41 | 41 | 100 | 30.03 | S | 3 | 0.01 |
| 42 | 03/20 | 07:00 | 41 | 41 | 100 | 30.03 | SSE | 3 | 0.02 |
| 43 | 03/20 | 06:00 | 41 | 41 | 100 | 30.02 | S | 4 | 0.02 |
| 44 | 03/20 | 05:00 | 41 | 41 | 100 | 30.02 | S | 3 | 0.01 |
| 45 | 03/20 | 04:00 | 40 | 40 | 100 | 30.02 | SSE | 5 | 0.00 |
| 46 | 03/20 | 03:00 | 40 | 39 | 99 | 30.04 | SSE | 6 | 0.00 |
| 47 | 03/20 | 02:00 | 39 | 36 | 91 | 30.06 | SSE | 4 | 0.00 |
| 48 | 03/20 | 01:00 | 39 | 34 | 84 | 30.07 | SSE | 3 | 0.00 |
| 49 | 03/20 | 00:00 | 39 | 33 | 80 | 30.07 | ESE | 2 | -0.25 |
| 50 | 03/19 | 23:00 | 39 | 33 | 79 | 30.09 | ESE | 8 | 0.00 |
| 51 | 03/19 | 22:00 | 39 | 32 | 76 | 30.10 | E | 5 | 0.00 |
| 52 | 03/19 | 21:00 | 41 | 33 | 73 | 30.09 | ESE | 7 | 0.00 |
| 53 | 03/19 | 20:00 | 44 | 33 | 66 | 30.10 | SE | 3 | 0.00 |
| 54 | 03/19 | 19:00 | 47 | 32 | 58 | 30.09 | E | 7 | 0.00 |
| 55 | 03/19 | 18:00 | 50 | 33 | 54 | 30.08 | SSE | 3 | 0.00 |
| 56 | 03/19 | 17:00 | 52 | 31 | 46 | 30.06 | S | 5 | 0.00 |
| 57 | 03/19 | 16:00 | 53 | 30 | 42 | 30.06 | SSW | 8 | 0.00 |
| 58 | 03/19 | 15:00 | 53 | 29 | 41 | 30.08 | SSE | 5 | 0.00 |
| 59 | 03/19 | 14:00 | 53 | 29 | 41 | 30.10 | SSW | 5 | 0.00 |
| 60 | 03/19 | 13:00 | 50 | 29 | 46 | 30.13 | SSE | 3 | 0.00 |
| 61 | 03/19 | 12:00 | 48 | 30 | 50 | 30.15 | E | 9 | 0.00 |
| 62 | 03/19 | 11:00 | 46 | 27 | 49 | 30.18 | SSW | 4 | 0.00 |
| 63 | 03/19 | 10:00 | 42 | 25 | 52 | 30.20 | SE | 6 | 0.00 |
| 64 | 03/19 | 09:00 | 38 | 24 | 59 | 30.20 | ENE | 7 | 0.00 |
| 65 | 03/19 | 08:00 | 34 | 25 | 71 | 30.19 | ENE | 5 | 0.00 |
| 66 | 03/19 | 07:00 | 29 | 23 | 78 | 30.19 | NE | 4 | 0.00 |
| 67 | 03/19 | 06:00 | 28 | 23 | 83 | 30.18 | ENE | 2 | 0.00 |
| 68 | 03/19 | 05:00 | 29 | 24 | 82 | 30.17 | NE | 2 | 0.00 |
| 69 | 03/19 | 04:00 | 29 | 25 | 88 | 30.16 | NNE | 2 | 0.00 |
| 70 | 03/19 | 03:00 | 30 | 26 | 87 | 30.15 | ESE | 2 | 0.00 |
| 71 | 03/19 | 02:00 | 31 | 27 | 87 | 30.14 | NE | 3 | 0.00 |
| 72 | 03/19 | 01:00 | 32 | 27 | 84 | 30.14 | N | 0 | 0.00 |
| 73 | 03/19 | 00:00 | 33 | 27 | 80 | 30.12 | E | 0 | 0.00 |